createdAt,value
2022-08-21T00:00:20.552Z,16.23
2022-08-21T00:03:02.647Z,16.21
2022-08-21T00:05:30.482Z,16.27
2022-08-21T00:07:57.762Z,16.26
2022-08-21T00:10:24.858Z,16.18
2022-08-21T00:12:52.076Z,16.12
2022-08-21T00:15:23.451Z,16.06
2022-08-21T00:17:50.012Z,16.05
2022-08-21T00:20:17.323Z,15.99
2022-08-21T00:22:44.198Z,16.04
2022-08-21T00:25:11.538Z,16.04
2022-08-21T00:27:38.194Z,15.99
2022-08-21T00:30:06.614Z,15.98
2022-08-21T00:32:34.324Z,15.96
2022-08-21T00:35:00.951Z,15.98
2022-08-21T00:37:27.964Z,15.84
2022-08-21T00:39:57.471Z,15.83
2022-08-21T00:42:24.336Z,15.79
2022-08-21T00:44:51.548Z,15.66
2022-08-21T00:47:19.285Z,15.69
2022-08-21T00:49:45.824Z,15.73
2022-08-21T00:52:20.715Z,15.58
2022-08-21T00:54:48.683Z,15.35
2022-08-21T00:57:18.811Z,15.34
2022-08-21T00:59:49.779Z,15.31
2022-08-21T01:02:17.628Z,15.39
2022-08-21T01:04:44.175Z,15.44
2022-08-21T01:07:10.914Z,15.69
2022-08-21T01:09:38.568Z,15.82
2022-08-21T01:12:05.630Z,15.80
2022-08-21T01:14:32.880Z,15.52
2022-08-21T01:17:00.373Z,15.26
2022-08-21T01:19:27.735Z,15.24
2022-08-21T01:21:54.755Z,15.33
2022-08-21T01:24:22.183Z,15.23
2022-08-21T01:26:50.108Z,15.10
2022-08-21T01:29:28.601Z,15.05
2022-08-21T01:31:55.502Z,15.23
2022-08-21T01:34:22.060Z,15.34
2022-08-21T01:36:48.976Z,15.26
2022-08-21T01:39:16.515Z,15.18
2022-08-21T01:41:43.383Z,15.09
2022-08-21T01:44:10.191Z,15.09
2022-08-21T01:46:36.868Z,15.01
2022-08-21T01:49:04.481Z,15.07
2022-08-21T01:51:31.095Z,15.06
2022-08-21T01:53:57.635Z,14.99
2022-08-21T01:56:25.734Z,15.04
2022-08-21T01:58:52.351Z,15.05
2022-08-21T02:01:18.969Z,15.14
2022-08-21T02:03:45.673Z,15.19
2022-08-21T02:06:18.597Z,15.19
2022-08-21T02:08:46.576Z,15.06
2022-08-21T02:11:13.425Z,15.18
2022-08-21T02:13:40.270Z,15.26
2022-08-21T02:16:07.779Z,15.17
2022-08-21T02:18:35.017Z,15.09
2022-08-21T02:21:02.403Z,14.91
2022-08-21T02:23:29.175Z,14.63
2022-08-21T02:25:58.559Z,14.50
2022-08-21T02:28:26.019Z,14.50
2022-08-21T02:30:55.487Z,14.62
2022-08-21T02:33:22.454Z,14.56
2022-08-21T02:35:50.306Z,14.68
2022-08-21T02:38:18.403Z,14.82
2022-08-21T02:40:48.397Z,14.91
2022-08-21T02:43:19.166Z,14.96
2022-08-21T02:45:46.001Z,14.91
2022-08-21T02:48:15.880Z,14.92
2022-08-21T02:50:47.430Z,14.89
2022-08-21T02:53:17.236Z,14.54
2022-08-21T02:55:48.569Z,14.63
2022-08-21T02:58:17.172Z,14.49
2022-08-21T03:00:44.693Z,14.24
2022-08-21T03:03:11.439Z,14.22
2022-08-21T03:05:38.651Z,14.28
2022-08-21T03:08:11.238Z,14.39
2022-08-21T03:10:40.713Z,14.63
2022-08-21T03:13:07.862Z,14.60
2022-08-21T03:15:35.826Z,14.69
2022-08-21T03:18:04.539Z,14.74
2022-08-21T03:20:33.140Z,14.81
2022-08-21T03:23:00.299Z,14.79
2022-08-21T03:25:33.732Z,14.51
2022-08-21T03:28:13.173Z,14.22
2022-08-21T03:30:42.660Z,14.22
2022-08-21T03:33:09.285Z,13.82
2022-08-21T03:35:40.085Z,13.71
2022-08-21T03:38:06.628Z,13.60
2022-08-21T03:40:33.257Z,13.65
2022-08-21T03:42:59.905Z,13.71
2022-08-21T03:45:26.786Z,13.72
2022-08-21T03:47:56.667Z,13.71
2022-08-21T03:50:25.301Z,13.70
2022-08-21T03:52:52.940Z,13.65
2022-08-21T03:55:19.635Z,13.59
2022-08-21T03:57:46.233Z,13.54
2022-08-21T04:00:14.509Z,13.54
2022-08-21T04:02:41.716Z,13.62
2022-08-21T04:05:08.908Z,13.61
2022-08-21T04:07:35.551Z,13.54
2022-08-21T04:10:02.080Z,13.53
2022-08-21T04:12:28.789Z,13.42
2022-08-21T04:14:55.352Z,13.42
2022-08-21T04:17:22.077Z,13.33
2022-08-21T04:19:53.182Z,13.20
2022-08-21T04:22:20.475Z,13.07
2022-08-21T04:24:47.102Z,13.09
2022-08-21T04:27:13.648Z,13.03
2022-08-21T04:29:40.296Z,12.99
2022-08-21T04:32:07.135Z,13.03
2022-08-21T04:34:34.113Z,13.09
2022-08-21T04:37:00.752Z,13.14
2022-08-21T04:39:29.752Z,13.23
2022-08-21T04:41:56.894Z,13.23
2022-08-21T04:44:23.414Z,13.23
2022-08-21T04:46:49.965Z,13.27
2022-08-21T04:49:16.610Z,13.26
2022-08-21T04:51:43.265Z,13.32
2022-08-21T04:54:20.974Z,13.48
2022-08-21T04:56:54.331Z,13.62
2022-08-21T04:59:27.434Z,13.69
2022-08-21T05:01:55.949Z,13.80
2022-08-21T05:04:25.465Z,13.93
2022-08-21T05:06:54.162Z,13.89
2022-08-21T05:09:21.576Z,14.04
2022-08-21T05:11:49.700Z,14.19
2022-08-21T05:14:16.981Z,14.31
2022-08-21T05:16:44.881Z,14.46
2022-08-21T05:19:11.291Z,14.55
2022-08-21T05:21:44.413Z,14.62
2022-08-21T05:24:11.403Z,14.68
2022-08-21T05:26:45.234Z,14.75
2022-08-21T05:29:13.937Z,14.98
2022-08-21T05:31:41.621Z,14.91
2022-08-21T05:34:09.070Z,14.79
2022-08-21T05:36:36.049Z,14.63
2022-08-21T05:39:03.115Z,14.46
2022-08-21T05:41:29.692Z,14.33
2022-08-21T05:43:56.590Z,14.33
2022-08-21T05:46:23.189Z,14.34
2022-08-21T05:48:49.856Z,14.36
2022-08-21T05:51:17.130Z,14.37
2022-08-21T05:53:44.260Z,14.44
2022-08-21T05:56:12.042Z,14.46
2022-08-21T05:58:38.900Z,14.50
2022-08-21T06:01:06.456Z,14.44
2022-08-21T06:03:35.759Z,14.46
2022-08-21T06:06:02.983Z,14.41
2022-08-21T06:08:30.407Z,14.78
2022-08-21T06:10:58.839Z,15.12
2022-08-21T06:13:26.251Z,15.34
2022-08-21T06:16:08.969Z,15.33
2022-08-21T06:18:36.272Z,15.27
2022-08-21T06:21:03.762Z,15.12
2022-08-21T06:23:33.398Z,15.13
2022-08-21T06:26:01.241Z,15.19
2022-08-21T06:28:27.976Z,15.26
2022-08-21T06:30:54.703Z,15.32
2022-08-21T06:33:21.334Z,15.36
2022-08-21T06:35:47.949Z,15.33
2022-08-21T06:38:14.555Z,15.52
2022-08-21T06:40:43.881Z,15.58
2022-08-21T06:43:16.396Z,15.73
2022-08-21T06:45:44.144Z,16.11
2022-08-21T06:48:11.949Z,16.37
2022-08-21T06:50:40.288Z,16.35
2022-08-21T06:53:10.717Z,16.41
2022-08-21T06:55:37.988Z,16.65
2022-08-21T06:58:05.347Z,16.92
2022-08-21T07:00:32.420Z,17.04
2022-08-21T07:02:59.441Z,17.21
2022-08-21T07:05:28.054Z,17.25
2022-08-21T07:07:54.642Z,17.29
2022-08-21T07:10:21.884Z,17.45
2022-08-21T07:12:50.771Z,17.56
2022-08-21T07:15:27.669Z,17.71
2022-08-21T07:17:54.323Z,17.70
2022-08-21T07:20:20.883Z,17.82
2022-08-21T07:22:47.468Z,17.91
2022-08-21T07:25:14.192Z,17.97
2022-08-21T07:27:40.830Z,18.19
2022-08-21T07:30:07.963Z,18.24
2022-08-21T07:32:34.539Z,18.32
2022-08-21T07:35:01.179Z,18.56
2022-08-21T07:37:27.889Z,18.66
2022-08-21T07:39:54.625Z,18.78
2022-08-21T07:42:21.259Z,18.92
2022-08-21T07:44:47.898Z,19.01
2022-08-21T07:47:17.485Z,18.89
2022-08-21T07:50:04.280Z,19.24
2022-08-21T07:52:31.931Z,19.31
2022-08-21T07:55:01.648Z,19.44
2022-08-21T07:57:30.707Z,19.38
2022-08-21T07:59:57.334Z,19.61
2022-08-21T08:02:29.220Z,19.58
2022-08-21T08:05:00.065Z,19.64
2022-08-21T08:07:27.104Z,19.74
2022-08-21T08:09:54.111Z,19.72
2022-08-21T08:12:21.594Z,19.89
2022-08-21T08:14:48.290Z,19.95
2022-08-21T08:17:14.864Z,20.18
2022-08-21T08:19:41.400Z,20.37
2022-08-21T08:22:15.587Z,20.41
2022-08-21T08:24:42.468Z,20.51
2022-08-21T08:27:09.206Z,20.71
2022-08-21T08:29:35.933Z,21.16
2022-08-21T08:32:03.597Z,21.31
2022-08-21T08:34:31.331Z,21.52
2022-08-21T08:36:59.542Z,21.30
2022-08-21T08:39:29.449Z,21.14
2022-08-21T08:42:33.140Z,21.66
2022-08-21T08:45:09.115Z,21.81
2022-08-21T08:47:39.973Z,21.93
2022-08-21T08:50:31.316Z,22.20
2022-08-21T08:53:30.034Z,22.28
2022-08-21T08:55:56.995Z,22.28
2022-08-21T08:58:35.420Z,22.43
2022-08-21T09:01:02.522Z,22.53
2022-08-21T09:03:29.534Z,22.62
2022-08-21T09:06:11.264Z,23.03
2022-08-21T09:08:44.554Z,22.95
2022-08-21T09:11:17.637Z,22.88
2022-08-21T09:13:53.695Z,22.85
2022-08-21T09:16:42.190Z,23.00
2022-08-21T09:19:27.170Z,22.99
2022-08-21T09:22:19.130Z,23.24
2022-08-21T09:24:51.822Z,23.27
2022-08-21T09:27:20.467Z,23.52
2022-08-21T09:29:51.765Z,23.04
2022-08-21T09:32:20.532Z,22.78
2022-08-21T09:35:18.247Z,23.19
2022-08-21T09:38:04.091Z,23.39
2022-08-21T09:40:36.535Z,23.51
2022-08-21T09:43:06.856Z,23.65
2022-08-21T09:45:35.610Z,23.47
2022-08-21T09:48:26.383Z,23.76
2022-08-21T09:50:54.514Z,23.67
2022-08-21T09:53:34.994Z,23.26
2022-08-21T09:56:34.472Z,23.49
2022-08-21T09:59:01.219Z,23.51
2022-08-21T10:01:27.955Z,23.43
2022-08-21T10:04:10.956Z,23.72
2022-08-21T10:06:38.035Z,23.45
2022-08-21T10:09:21.122Z,23.87
2022-08-21T10:12:04.697Z,23.92
2022-08-21T10:14:52.731Z,23.98
2022-08-21T10:17:35.788Z,24.32
2022-08-21T10:20:14.943Z,24.05
2022-08-21T10:23:03.823Z,24.23
2022-08-21T10:26:14.545Z,24.20
2022-08-21T10:28:52.988Z,24.20
2022-08-21T10:31:40.798Z,24.16
2022-08-21T10:34:31.610Z,23.93
2022-08-21T10:37:13.290Z,23.70
2022-08-21T10:39:55.271Z,23.90
2022-08-21T10:42:37.313Z,24.12
2022-08-21T10:45:29.996Z,24.07
2022-08-21T10:48:17.313Z,24.21
2022-08-21T10:51:06.788Z,24.32
2022-08-21T10:54:19.167Z,24.40
2022-08-21T10:57:26.021Z,24.43
2022-08-21T11:00:12.387Z,24.19
2022-08-21T11:02:53.828Z,24.20
2022-08-21T11:05:57.330Z,23.92
2022-08-21T11:08:35.540Z,24.01
2022-08-21T11:11:15.731Z,24.20
2022-08-21T11:14:02.234Z,24.59
2022-08-21T11:16:51.110Z,24.54
2022-08-21T11:19:34.627Z,24.77
2022-08-21T11:22:19.486Z,24.40
2022-08-21T11:25:02.317Z,24.57
2022-08-21T11:27:41.747Z,24.89
2022-08-21T11:30:15.958Z,24.97
2022-08-21T11:33:44.963Z,24.98
2022-08-21T11:37:01.054Z,25.05
2022-08-21T11:39:58.439Z,24.97
2022-08-21T11:42:55.018Z,25.21
2022-08-21T11:45:44.532Z,24.81
2022-08-21T11:48:41.028Z,25.13
2022-08-21T11:51:40.190Z,25.06
2022-08-21T11:57:28.641Z,24.48
2022-08-21T12:00:24.112Z,24.20
2022-08-21T12:03:25.369Z,24.42
2022-08-21T12:06:24.503Z,24.51
2022-08-21T12:09:03.518Z,24.35
2022-08-21T12:12:11.379Z,24.78
2022-08-21T12:14:56.706Z,24.88
2022-08-21T12:17:31.103Z,24.82
2022-08-21T12:20:21.891Z,24.94
2022-08-21T12:23:01.579Z,24.91
2022-08-21T12:25:51.583Z,25.05
2022-08-21T12:28:32.207Z,25.06
2022-08-21T12:31:25.233Z,25.25
2022-08-21T12:34:02.629Z,25.45
2022-08-21T12:39:59.532Z,25.20
2022-08-21T12:42:58.924Z,25.12
2022-08-21T12:45:48.137Z,25.36
2022-08-21T12:48:56.547Z,25.47
2022-08-21T12:52:25.549Z,25.20
2022-08-21T12:54:52.897Z,25.22
2022-08-21T12:57:25.860Z,24.91
2022-08-21T13:00:10.227Z,25.05
2022-08-21T13:02:40.860Z,25.19
2022-08-21T13:05:08.686Z,25.22
2022-08-21T13:07:37.133Z,25.02
2022-08-21T13:10:19.797Z,25.27
2022-08-21T13:12:47.211Z,25.31
2022-08-21T13:15:13.827Z,25.49
2022-08-21T13:17:46.833Z,25.20
2022-08-21T13:20:26.468Z,25.25
2022-08-21T13:22:53.182Z,25.22
2022-08-21T13:25:21.672Z,25.24
2022-08-21T13:28:06.935Z,25.30
2022-08-21T13:30:34.312Z,25.44
2022-08-21T13:33:02.890Z,25.43
2022-08-21T13:35:46.514Z,25.27
2022-08-21T13:38:13.075Z,25.54
2022-08-21T13:40:53.031Z,25.48
2022-08-21T13:43:23.717Z,25.57
2022-08-21T13:45:52.307Z,25.29
2022-08-21T13:48:20.774Z,25.43
2022-08-21T13:50:47.627Z,25.59
2022-08-21T13:53:32.788Z,25.61
2022-08-21T13:56:01.054Z,25.64
2022-08-21T13:58:30.788Z,25.66
2022-08-21T14:00:59.136Z,25.64
2022-08-21T14:03:42.994Z,25.80
2022-08-21T14:06:15.550Z,25.74
2022-08-21T14:08:42.364Z,25.89
2022-08-21T14:11:12.636Z,25.99
2022-08-21T14:13:45.399Z,25.81
2022-08-21T14:16:18.582Z,25.90
2022-08-21T14:18:53.715Z,25.81
2022-08-21T14:21:35.131Z,25.66
2022-08-21T14:24:24.776Z,25.81
2022-08-21T14:26:54.582Z,26.17
2022-08-21T14:29:23.491Z,25.95
2022-08-21T14:31:52.474Z,26.27
2022-08-21T14:34:19.910Z,26.26
2022-08-21T14:36:47.828Z,26.41
2022-08-21T14:39:14.485Z,26.16
2022-08-21T14:41:41.304Z,26.30
2022-08-21T14:44:09.657Z,26.60
2022-08-21T14:46:44.005Z,26.60
2022-08-21T14:49:24.511Z,26.71
2022-08-21T14:51:57.688Z,26.41
2022-08-21T14:54:31.747Z,26.49
2022-08-21T14:57:00.313Z,26.60
2022-08-21T14:59:27.107Z,26.66
2022-08-21T15:01:53.821Z,26.70
2022-08-21T15:04:20.483Z,26.60
2022-08-21T15:06:47.113Z,26.60
2022-08-21T15:09:13.818Z,26.46
2022-08-21T15:11:41.885Z,26.16
2022-08-21T15:14:26.247Z,26.42
2022-08-21T15:16:53.435Z,26.53
2022-08-21T15:19:20.432Z,26.50
2022-08-21T15:21:47.232Z,26.68
2022-08-21T15:24:13.913Z,26.53
2022-08-21T15:26:40.558Z,26.66
2022-08-21T15:29:08.087Z,26.16
2022-08-21T15:31:36.116Z,26.32
2022-08-21T15:34:03.540Z,26.36
2022-08-21T15:36:29.990Z,26.62
2022-08-21T15:38:56.551Z,26.67
2022-08-21T15:41:23.083Z,26.87
2022-08-21T15:43:51.197Z,26.89
2022-08-21T15:46:20.582Z,26.86
2022-08-21T15:48:47.262Z,26.84
2022-08-21T15:51:15.679Z,26.97
2022-08-21T15:53:42.956Z,26.90
2022-08-21T15:56:36.504Z,26.52
2022-08-21T15:59:06.723Z,26.63
2022-08-21T16:01:44.308Z,26.62
2022-08-21T16:04:14.824Z,26.47
2022-08-21T16:06:53.417Z,26.53
2022-08-21T16:09:22.921Z,26.48
2022-08-21T16:11:49.618Z,26.53
2022-08-21T16:14:17.228Z,26.65
2022-08-21T16:16:43.974Z,26.51
2022-08-21T16:19:11.836Z,26.53
2022-08-21T16:21:38.424Z,26.27
2022-08-21T16:24:05.200Z,26.09
2022-08-21T16:26:32.058Z,26.11
2022-08-21T16:29:01.347Z,26.02
2022-08-21T16:31:27.912Z,26.12
2022-08-21T16:33:57.864Z,26.30
2022-08-21T16:36:26.440Z,26.40
2022-08-21T16:38:54.716Z,26.68
2022-08-21T16:41:23.292Z,27.43
2022-08-21T16:43:51.511Z,27.67
2022-08-21T16:46:19.137Z,27.53
2022-08-21T16:48:45.828Z,27.46
2022-08-21T16:51:13.911Z,27.02
2022-08-21T16:53:40.950Z,26.70
2022-08-21T16:56:08.821Z,26.56
2022-08-21T16:58:38.151Z,26.19
2022-08-21T17:01:07.514Z,25.77
2022-08-21T17:03:40.112Z,25.60
2022-08-21T17:06:07.480Z,25.59
2022-08-21T17:08:33.973Z,25.58
2022-08-21T17:11:01.088Z,25.56
2022-08-21T17:13:30.528Z,25.51
2022-08-21T17:15:57.143Z,25.54
2022-08-21T17:18:24.826Z,25.48
2022-08-21T17:20:51.507Z,25.35
2022-08-21T17:23:19.614Z,25.27
2022-08-21T17:25:50.009Z,25.18
2022-08-21T17:28:24.396Z,25.03
2022-08-21T17:30:53.102Z,24.88
2022-08-21T17:33:20.491Z,24.86
2022-08-21T17:35:47.371Z,24.80
2022-08-21T17:38:15.015Z,24.67
2022-08-21T17:40:42.352Z,24.53
2022-08-21T17:43:13.150Z,24.36
2022-08-21T17:45:40.714Z,24.17
2022-08-21T17:48:07.273Z,24.02
2022-08-21T17:50:34.412Z,23.96
2022-08-21T17:53:01.039Z,23.84
2022-08-21T17:55:28.455Z,23.72
2022-08-21T17:57:56.068Z,23.49
2022-08-21T18:00:24.748Z,23.33
2022-08-21T18:02:58.544Z,23.08
2022-08-21T18:05:25.104Z,22.90
2022-08-21T18:07:51.666Z,22.73
2022-08-21T18:10:18.262Z,22.52
2022-08-21T18:12:45.402Z,22.37
2022-08-21T18:15:14.398Z,22.27
2022-08-21T18:17:46.298Z,22.09
2022-08-21T18:20:16.076Z,21.93
2022-08-21T18:22:42.807Z,21.81
2022-08-21T18:25:09.721Z,21.72
2022-08-21T18:27:36.826Z,21.60
2022-08-21T18:30:05.437Z,21.33
2022-08-21T18:32:32.382Z,21.24
2022-08-21T18:35:00.764Z,21.26
2022-08-21T18:37:27.703Z,21.26
2022-08-21T18:39:54.409Z,21.24
2022-08-21T18:42:21.491Z,21.23
2022-08-21T18:44:59.423Z,21.15
2022-08-21T18:47:33.599Z,21.12
2022-08-21T18:50:00.206Z,21.00
2022-08-21T18:52:28.516Z,20.97
2022-08-21T18:54:55.501Z,20.91
2022-08-21T18:57:23.363Z,20.95
2022-08-21T18:59:49.916Z,20.85
2022-08-21T19:02:16.475Z,20.85
2022-08-21T19:07:30.465Z,20.81
2022-08-21T19:10:24.676Z,20.76
2022-08-21T19:12:44.414Z,20.72
2022-08-21T19:15:18.268Z,20.70
2022-08-21T19:17:47.039Z,20.64
2022-08-21T19:20:36.894Z,20.60
2022-08-21T19:26:00.457Z,20.45
2022-08-21T19:28:30.833Z,20.43
2022-08-21T19:31:01.787Z,20.33
2022-08-21T19:33:34.189Z,20.27
2022-08-21T19:36:02.034Z,20.26
2022-08-21T19:38:28.681Z,20.22
2022-08-21T19:40:56.250Z,20.20
2022-08-21T19:43:23.594Z,20.17
2022-08-21T19:45:53.209Z,20.18
2022-08-21T19:48:20.059Z,20.11
2022-08-21T19:50:46.622Z,20.03
2022-08-21T19:53:13.219Z,19.99
2022-08-21T19:55:43.822Z,19.88
2022-08-21T19:58:22.695Z,19.87
2022-08-21T20:00:49.441Z,19.85
2022-08-21T20:03:17.874Z,19.86
2022-08-21T20:05:47.895Z,19.86
2022-08-21T20:08:20.257Z,19.84
2022-08-21T20:10:47.647Z,19.82
2022-08-21T20:13:17.949Z,19.78
2022-08-21T20:15:45.549Z,19.77
2022-08-21T20:18:12.204Z,19.71
2022-08-21T20:20:38.829Z,19.73
2022-08-21T20:23:10.706Z,19.70
2022-08-21T20:25:38.464Z,19.62
2022-08-21T20:28:05.981Z,19.57
2022-08-21T20:30:32.915Z,19.53
2022-08-21T20:33:00.056Z,19.47
2022-08-21T20:35:26.776Z,19.40
2022-08-21T20:37:58.911Z,19.33
2022-08-21T20:40:29.194Z,19.24
2022-08-21T20:42:59.328Z,19.14
2022-08-21T20:45:31.875Z,19.11
2022-08-21T20:48:12.843Z,19.01
2022-08-21T20:50:44.178Z,18.90
2022-08-21T20:53:18.516Z,18.87
2022-08-21T20:55:47.887Z,18.86
2022-08-21T20:58:29.682Z,18.86
2022-08-21T21:01:00.247Z,18.78
2022-08-21T21:03:38.342Z,18.78
2022-08-21T21:06:12.669Z,18.73
2022-08-21T21:08:49.084Z,18.69
2022-08-21T21:11:20.518Z,18.63
2022-08-21T21:13:53.921Z,18.58
2022-08-21T21:16:27.848Z,18.57
2022-08-21T21:19:03.527Z,18.58
2022-08-21T21:21:34.172Z,18.53
2022-08-21T21:24:13.224Z,18.47
2022-08-21T21:26:48.616Z,18.40
2022-08-21T21:29:21.531Z,18.37
2022-08-21T21:31:49.317Z,18.35
2022-08-21T21:34:17.302Z,18.37
2022-08-21T21:36:51.392Z,18.32
2022-08-21T21:39:28.115Z,18.29
2022-08-21T21:42:09.132Z,18.23
2022-08-21T21:45:03.614Z,18.18
2022-08-21T21:47:45.699Z,18.12
2022-08-21T21:50:20.815Z,18.11
2022-08-21T21:53:23.216Z,17.98
2022-08-21T21:56:07.128Z,17.96
2022-08-21T21:58:43.970Z,17.87
2022-08-21T22:01:45.001Z,17.87
2022-08-21T22:04:21.237Z,17.89
2022-08-21T22:07:09.055Z,17.88
2022-08-21T22:09:44.205Z,17.83
2022-08-21T22:12:31.332Z,17.90
2022-08-21T22:14:57.847Z,17.83
2022-08-21T22:17:44.785Z,17.76
2022-08-21T22:20:31.979Z,17.82
2022-08-21T22:23:00.515Z,17.80
2022-08-21T22:25:35.322Z,17.67
2022-08-21T22:28:12.363Z,17.67
2022-08-21T22:30:46.994Z,17.59
2022-08-21T22:33:14.871Z,17.45
2022-08-21T22:35:42.036Z,17.45
2022-08-21T22:38:27.847Z,17.44
2022-08-21T22:41:19.148Z,17.31
2022-08-21T22:44:02.457Z,17.32
2022-08-21T22:46:32.996Z,17.38
2022-08-21T22:49:10.071Z,17.32
2022-08-21T22:51:38.791Z,17.27
2022-08-21T22:54:16.784Z,17.21
2022-08-21T22:57:03.392Z,17.12
2022-08-21T22:59:34.842Z,17.27
2022-08-21T23:02:25.883Z,17.23
2022-08-21T23:04:57.897Z,17.23
2022-08-21T23:07:43.415Z,17.23
2022-08-21T23:10:19.478Z,17.34
2022-08-21T23:12:52.169Z,17.39
2022-08-21T23:15:21.418Z,17.46
2022-08-21T23:17:50.291Z,17.41
2022-08-21T23:20:41.797Z,17.18
2022-08-21T23:23:17.908Z,17.16
2022-08-21T23:26:19.563Z,17.18
2022-08-21T23:29:26.368Z,17.17
2022-08-21T23:32:14.911Z,17.16
2022-08-21T23:35:03.996Z,17.16
2022-08-21T23:37:51.592Z,17.08
2022-08-21T23:40:51.400Z,16.97
2022-08-21T23:43:41.600Z,16.92
2022-08-21T23:49:36.573Z,16.86
2022-08-21T23:52:49.256Z,16.95
2022-08-21T23:55:28.686Z,16.94
2022-08-21T23:58:18.566Z,16.94
